sensor_id;sensor_type;location;lat;lon;timestamp;P1;durP1;ratioP1;P2;durP2;ratioP2
14474;SDS011;7323;50.848;4.334;2022-10-22T00:02:07;10.07;;;3.53;;
14474;SDS011;7323;50.848;4.334;2022-10-22T00:04:33;8.10;;;3.57;;
14474;SDS011;7323;50.848;4.334;2022-10-22T00:07:02;9.20;;;3.17;;
14474;SDS011;7323;50.848;4.334;2022-10-22T00:09:31;7.70;;;3.37;;
14474;SDS011;7323;50.848;4.334;2022-10-22T00:15:26;6.90;;;3.13;;
14474;SDS011;7323;50.848;4.334;2022-10-22T00:17:52;10.20;;;3.50;;
14474;SDS011;7323;50.848;4.334;2022-10-22T00:20:19;9.63;;;3.63;;
14474;SDS011;7323;50.848;4.334;2022-10-22T00:22:44;9.00;;;3.87;;
14474;SDS011;7323;50.848;4.334;2022-10-22T00:25:11;8.60;;;3.50;;
14474;SDS011;7323;50.848;4.334;2022-10-22T00:27:37;11.20;;;3.87;;
14474;SDS011;7323;50.848;4.334;2022-10-22T00:30:03;9.27;;;3.30;;
14474;SDS011;7323;50.848;4.334;2022-10-22T00:32:29;11.40;;;3.83;;
14474;SDS011;7323;50.848;4.334;2022-10-22T00:34:54;8.73;;;3.60;;
14474;SDS011;7323;50.848;4.334;2022-10-22T00:37:20;8.17;;;3.10;;
14474;SDS011;7323;50.848;4.334;2022-10-22T00:39:46;9.93;;;3.37;;
14474;SDS011;7323;50.848;4.334;2022-10-22T00:42:22;9.37;;;3.47;;
14474;SDS011;7323;50.848;4.334;2022-10-22T00:50:55;9.33;;;3.63;;
14474;SDS011;7323;50.848;4.334;2022-10-22T00:53:33;7.37;;;3.43;;
14474;SDS011;7323;50.848;4.334;2022-10-22T00:56:16;7.27;;;3.03;;
14474;SDS011;7323;50.848;4.334;2022-10-22T00:58:43;6.93;;;3.20;;
14474;SDS011;7323;50.848;4.334;2022-10-22T01:04:41;10.00;;;2.80;;
14474;SDS011;7323;50.848;4.334;2022-10-22T01:07:10;6.43;;;2.93;;
14474;SDS011;7323;50.848;4.334;2022-10-22T01:09:45;7.67;;;2.33;;
14474;SDS011;7323;50.848;4.334;2022-10-22T01:12:33;9.20;;;2.67;;
14474;SDS011;7323;50.848;4.334;2022-10-22T01:18:10;7.40;;;2.93;;
14474;SDS011;7323;50.848;4.334;2022-10-22T01:26:36;8.77;;;2.93;;
14474;SDS011;7323;50.848;4.334;2022-10-22T01:29:35;8.13;;;2.70;;
14474;SDS011;7323;50.848;4.334;2022-10-22T01:32:18;7.97;;;2.53;;
14474;SDS011;7323;50.848;4.334;2022-10-22T01:34:49;5.90;;;2.73;;
14474;SDS011;7323;50.848;4.334;2022-10-22T01:37:19;7.87;;;2.50;;
14474;SDS011;7323;50.848;4.334;2022-10-22T01:39:47;12.23;;;2.93;;
14474;SDS011;7323;50.848;4.334;2022-10-22T01:42:14;7.70;;;2.60;;
14474;SDS011;7323;50.848;4.334;2022-10-22T01:44:40;6.37;;;2.57;;
14474;SDS011;7323;50.848;4.334;2022-10-22T01:47:21;8.47;;;2.90;;
14474;SDS011;7323;50.848;4.334;2022-10-22T01:50:44;9.00;;;2.87;;
14474;SDS011;7323;50.848;4.334;2022-10-22T01:59:03;9.17;;;2.60;;
14474;SDS011;7323;50.848;4.334;2022-10-22T02:05:10;16.00;;;2.83;;
14474;SDS011;7323;50.848;4.334;2022-10-22T02:08:03;8.47;;;2.60;;
14474;SDS011;7323;50.848;4.334;2022-10-22T02:10:33;7.30;;;2.67;;
14474;SDS011;7323;50.848;4.334;2022-10-22T02:13:02;8.07;;;2.30;;
14474;SDS011;7323;50.848;4.334;2022-10-22T02:15:31;6.87;;;2.60;;
14474;SDS011;7323;50.848;4.334;2022-10-22T02:18:01;5.53;;;2.23;;
14474;SDS011;7323;50.848;4.334;2022-10-22T02:20:32;10.47;;;2.67;;
14474;SDS011;7323;50.848;4.334;2022-10-22T02:23:00;8.50;;;2.60;;
14474;SDS011;7323;50.848;4.334;2022-10-22T02:25:28;7.33;;;2.57;;
14474;SDS011;7323;50.848;4.334;2022-10-22T02:28:10;7.10;;;2.37;;
14474;SDS011;7323;50.848;4.334;2022-10-22T02:30:47;10.07;;;2.67;;
14474;SDS011;7323;50.848;4.334;2022-10-22T02:33:26;10.27;;;2.73;;
14474;SDS011;7323;50.848;4.334;2022-10-22T02:35:55;8.03;;;2.57;;
14474;SDS011;7323;50.848;4.334;2022-10-22T02:38:22;10.83;;;2.67;;
14474;SDS011;7323;50.848;4.334;2022-10-22T02:40:50;8.47;;;2.63;;
14474;SDS011;7323;50.848;4.334;2022-10-22T02:43:17;7.10;;;2.37;;
14474;SDS011;7323;50.848;4.334;2022-10-22T02:45:43;9.40;;;2.50;;
14474;SDS011;7323;50.848;4.334;2022-10-22T02:48:09;11.23;;;2.77;;
14474;SDS011;7323;50.848;4.334;2022-10-22T02:50:37;7.77;;;2.27;;
14474;SDS011;7323;50.848;4.334;2022-10-22T02:53:03;8.77;;;2.33;;
14474;SDS011;7323;50.848;4.334;2022-10-22T02:55:29;9.43;;;2.40;;
14474;SDS011;7323;50.848;4.334;2022-10-22T02:57:55;8.60;;;2.60;;
14474;SDS011;7323;50.848;4.334;2022-10-22T03:00:21;6.73;;;2.47;;
14474;SDS011;7323;50.848;4.334;2022-10-22T03:02:47;7.43;;;2.50;;
14474;SDS011;7323;50.848;4.334;2022-10-22T03:05:13;10.40;;;2.13;;
14474;SDS011;7323;50.848;4.334;2022-10-22T03:07:38;7.10;;;2.40;;
14474;SDS011;7323;50.848;4.334;2022-10-22T03:10:05;8.57;;;2.97;;
14474;SDS011;7323;50.848;4.334;2022-10-22T03:12:31;11.57;;;2.97;;
14474;SDS011;7323;50.848;4.334;2022-10-22T03:14:57;8.03;;;2.17;;
14474;SDS011;7323;50.848;4.334;2022-10-22T03:17:23;7.80;;;2.40;;
14474;SDS011;7323;50.848;4.334;2022-10-22T03:19:48;9.30;;;2.67;;
14474;SDS011;7323;50.848;4.334;2022-10-22T03:22:15;7.63;;;2.30;;
14474;SDS011;7323;50.848;4.334;2022-10-22T03:24:46;10.43;;;2.40;;
14474;SDS011;7323;50.848;4.334;2022-10-22T03:27:18;8.23;;;2.33;;
14474;SDS011;7323;50.848;4.334;2022-10-22T03:29:54;8.57;;;2.57;;
14474;SDS011;7323;50.848;4.334;2022-10-22T03:32:22;5.80;;;2.30;;
14474;SDS011;7323;50.848;4.334;2022-10-22T03:34:48;8.70;;;2.90;;
14474;SDS011;7323;50.848;4.334;2022-10-22T03:37:14;7.83;;;2.20;;
14474;SDS011;7323;50.848;4.334;2022-10-22T03:39:40;10.50;;;2.10;;
14474;SDS011;7323;50.848;4.334;2022-10-22T03:42:06;8.40;;;2.40;;
14474;SDS011;7323;50.848;4.334;2022-10-22T03:44:32;9.13;;;2.30;;
14474;SDS011;7323;50.848;4.334;2022-10-22T03:47:00;9.17;;;2.50;;
14474;SDS011;7323;50.848;4.334;2022-10-22T03:49:28;7.30;;;2.43;;
14474;SDS011;7323;50.848;4.334;2022-10-22T03:51:54;8.87;;;2.13;;
14474;SDS011;7323;50.848;4.334;2022-10-22T03:54:23;8.30;;;2.53;;
14474;SDS011;7323;50.848;4.334;2022-10-22T03:56:48;5.53;;;2.50;;
14474;SDS011;7323;50.848;4.334;2022-10-22T03:59:14;10.47;;;2.40;;
14474;SDS011;7323;50.848;4.334;2022-10-22T04:01:40;5.57;;;2.00;;
14474;SDS011;7323;50.848;4.334;2022-10-22T04:04:06;5.93;;;2.27;;
14474;SDS011;7323;50.848;4.334;2022-10-22T04:06:32;5.87;;;2.00;;
14474;SDS011;7323;50.848;4.334;2022-10-22T04:08:58;8.93;;;2.10;;
14474;SDS011;7323;50.848;4.334;2022-10-22T04:11:25;7.10;;;1.93;;
14474;SDS011;7323;50.848;4.334;2022-10-22T04:13:50;7.70;;;2.10;;
14474;SDS011;7323;50.848;4.334;2022-10-22T04:16:17;8.20;;;2.30;;
14474;SDS011;7323;50.848;4.334;2022-10-22T04:18:46;5.53;;;1.90;;
14474;SDS011;7323;50.848;4.334;2022-10-22T04:21:14;8.60;;;2.17;;
14474;SDS011;7323;50.848;4.334;2022-10-22T04:32:11;8.97;;;2.17;;
14474;SDS011;7323;50.848;4.334;2022-10-22T04:34:36;7.97;;;2.30;;
14474;SDS011;7323;50.848;4.334;2022-10-22T04:37:02;3.93;;;1.50;;
14474;SDS011;7323;50.848;4.334;2022-10-22T04:39:29;11.40;;;2.30;;
14474;SDS011;7323;50.848;4.334;2022-10-22T04:41:54;5.97;;;1.93;;
14474;SDS011;7323;50.848;4.334;2022-10-22T04:44:22;7.53;;;2.60;;
14474;SDS011;7323;50.848;4.334;2022-10-22T04:46:48;6.63;;;2.10;;
14474;SDS011;7323;50.848;4.334;2022-10-22T04:49:13;7.87;;;2.13;;
14474;SDS011;7323;50.848;4.334;2022-10-22T04:51:39;9.47;;;2.40;;
14474;SDS011;7323;50.848;4.334;2022-10-22T04:54:05;8.20;;;2.07;;
14474;SDS011;7323;50.848;4.334;2022-10-22T04:56:31;12.87;;;2.43;;
14474;SDS011;7323;50.848;4.334;2022-10-22T04:58:57;9.13;;;2.10;;
14474;SDS011;7323;50.848;4.334;2022-10-22T05:01:29;8.33;;;2.23;;
14474;SDS011;7323;50.848;4.334;2022-10-22T05:04:00;7.17;;;2.37;;
14474;SDS011;7323;50.848;4.334;2022-10-22T05:06:27;7.53;;;2.07;;
14474;SDS011;7323;50.848;4.334;2022-10-22T05:08:57;7.40;;;2.20;;
14474;SDS011;7323;50.848;4.334;2022-10-22T05:11:26;11.93;;;2.37;;
14474;SDS011;7323;50.848;4.334;2022-10-22T05:13:58;9.03;;;2.30;;
14474;SDS011;7323;50.848;4.334;2022-10-22T05:16:25;9.03;;;2.83;;
14474;SDS011;7323;50.848;4.334;2022-10-22T05:18:52;6.90;;;2.30;;
14474;SDS011;7323;50.848;4.334;2022-10-22T05:21:19;8.93;;;2.50;;
14474;SDS011;7323;50.848;4.334;2022-10-22T05:23:46;10.60;;;2.30;;
14474;SDS011;7323;50.848;4.334;2022-10-22T05:26:14;9.33;;;2.20;;
14474;SDS011;7323;50.848;4.334;2022-10-22T05:28:43;10.47;;;2.17;;
14474;SDS011;7323;50.848;4.334;2022-10-22T05:31:10;11.97;;;2.63;;
14474;SDS011;7323;50.848;4.334;2022-10-22T05:33:37;9.03;;;2.27;;
14474;SDS011;7323;50.848;4.334;2022-10-22T05:36:05;8.20;;;1.93;;
14474;SDS011;7323;50.848;4.334;2022-10-22T05:38:32;11.30;;;2.47;;
14474;SDS011;7323;50.848;4.334;2022-10-22T05:41:03;7.03;;;2.17;;
14474;SDS011;7323;50.848;4.334;2022-10-22T05:43:34;9.30;;;2.50;;
14474;SDS011;7323;50.848;4.334;2022-10-22T05:46:03;9.20;;;2.07;;
14474;SDS011;7323;50.848;4.334;2022-10-22T05:48:34;10.47;;;2.17;;
14474;SDS011;7323;50.848;4.334;2022-10-22T05:51:01;8.53;;;3.37;;
14474;SDS011;7323;50.848;4.334;2022-10-22T05:53:32;9.93;;;2.87;;
14474;SDS011;7323;50.848;4.334;2022-10-22T05:56:00;9.40;;;2.30;;
14474;SDS011;7323;50.848;4.334;2022-10-22T05:58:28;10.83;;;2.30;;
14474;SDS011;7323;50.848;4.334;2022-10-22T06:00:54;7.97;;;2.50;;
14474;SDS011;7323;50.848;4.334;2022-10-22T06:03:24;7.83;;;2.13;;
14474;SDS011;7323;50.848;4.334;2022-10-22T06:05:50;10.10;;;2.47;;
14474;SDS011;7323;50.848;4.334;2022-10-22T06:08:16;9.77;;;2.40;;
14474;SDS011;7323;50.848;4.334;2022-10-22T06:10:41;8.23;;;2.30;;
14474;SDS011;7323;50.848;4.334;2022-10-22T06:13:08;12.90;;;2.77;;
14474;SDS011;7323;50.848;4.334;2022-10-22T06:15:34;10.07;;;2.80;;
14474;SDS011;7323;50.848;4.334;2022-10-22T06:18:00;9.40;;;3.53;;
14474;SDS011;7323;50.848;4.334;2022-10-22T06:20:27;11.67;;;3.63;;
14474;SDS011;7323;50.848;4.334;2022-10-22T06:22:52;9.30;;;2.23;;
14474;SDS011;7323;50.848;4.334;2022-10-22T06:25:19;8.30;;;2.17;;
14474;SDS011;7323;50.848;4.334;2022-10-22T06:27:48;10.23;;;2.37;;
14474;SDS011;7323;50.848;4.334;2022-10-22T06:30:15;7.60;;;2.20;;
14474;SDS011;7323;50.848;4.334;2022-10-22T06:32:42;11.03;;;2.33;;
14474;SDS011;7323;50.848;4.334;2022-10-22T06:35:08;8.23;;;3.13;;
14474;SDS011;7323;50.848;4.334;2022-10-22T06:37:33;11.20;;;2.53;;
14474;SDS011;7323;50.848;4.334;2022-10-22T06:39:59;10.33;;;2.67;;
14474;SDS011;7323;50.848;4.334;2022-10-22T06:42:26;8.17;;;2.33;;
14474;SDS011;7323;50.848;4.334;2022-10-22T06:44:52;9.77;;;2.67;;
14474;SDS011;7323;50.848;4.334;2022-10-22T06:47:18;8.33;;;2.40;;
14474;SDS011;7323;50.848;4.334;2022-10-22T06:49:44;7.10;;;2.43;;
14474;SDS011;7323;50.848;4.334;2022-10-22T06:52:09;14.87;;;2.53;;
14474;SDS011;7323;50.848;4.334;2022-10-22T06:54:35;8.67;;;2.23;;
14474;SDS011;7323;50.848;4.334;2022-10-22T06:57:03;8.57;;;2.57;;
14474;SDS011;7323;50.848;4.334;2022-10-22T06:59:30;6.37;;;2.23;;
14474;SDS011;7323;50.848;4.334;2022-10-22T07:01:58;7.20;;;2.23;;
14474;SDS011;7323;50.848;4.334;2022-10-22T07:04:25;8.80;;;2.30;;
14474;SDS011;7323;50.848;4.334;2022-10-22T07:06:53;11.47;;;2.40;;
14474;SDS011;7323;50.848;4.334;2022-10-22T07:09:22;11.57;;;2.60;;
14474;SDS011;7323;50.848;4.334;2022-10-22T07:11:49;10.03;;;2.37;;
14474;SDS011;7323;50.848;4.334;2022-10-22T07:14:14;8.20;;;2.60;;
14474;SDS011;7323;50.848;4.334;2022-10-22T07:16:40;9.87;;;2.80;;
14474;SDS011;7323;50.848;4.334;2022-10-22T07:19:13;7.93;;;2.53;;
14474;SDS011;7323;50.848;4.334;2022-10-22T07:21:39;8.90;;;2.30;;
14474;SDS011;7323;50.848;4.334;2022-10-22T07:24:05;7.13;;;2.00;;
14474;SDS011;7323;50.848;4.334;2022-10-22T07:26:31;8.50;;;2.47;;
14474;SDS011;7323;50.848;4.334;2022-10-22T07:28:58;8.47;;;2.50;;
14474;SDS011;7323;50.848;4.334;2022-10-22T07:31:37;6.97;;;2.23;;
14474;SDS011;7323;50.848;4.334;2022-10-22T07:34:02;9.93;;;2.50;;
14474;SDS011;7323;50.848;4.334;2022-10-22T07:36:31;9.13;;;2.50;;
14474;SDS011;7323;50.848;4.334;2022-10-22T07:39:03;8.73;;;2.60;;
14474;SDS011;7323;50.848;4.334;2022-10-22T07:41:29;11.47;;;2.93;;
14474;SDS011;7323;50.848;4.334;2022-10-22T07:43:56;9.53;;;2.20;;
14474;SDS011;7323;50.848;4.334;2022-10-22T07:46:30;6.97;;;1.83;;
14474;SDS011;7323;50.848;4.334;2022-10-22T07:48:56;11.00;;;2.27;;
14474;SDS011;7323;50.848;4.334;2022-10-22T07:51:22;8.50;;;2.00;;
14474;SDS011;7323;50.848;4.334;2022-10-22T07:53:55;6.20;;;2.27;;
14474;SDS011;7323;50.848;4.334;2022-10-22T07:58:53;10.77;;;2.37;;
14474;SDS011;7323;50.848;4.334;2022-10-22T08:01:21;8.03;;;2.00;;
14474;SDS011;7323;50.848;4.334;2022-10-22T08:03:49;7.83;;;2.97;;
14474;SDS011;7323;50.848;4.334;2022-10-22T08:06:24;6.23;;;2.63;;
14474;SDS011;7323;50.848;4.334;2022-10-22T08:11:49;10.13;;;2.30;;
14474;SDS011;7323;50.848;4.334;2022-10-22T08:14:15;7.77;;;2.43;;
14474;SDS011;7323;50.848;4.334;2022-10-22T08:16:40;9.13;;;2.33;;
14474;SDS011;7323;50.848;4.334;2022-10-22T08:19:07;8.97;;;2.20;;
14474;SDS011;7323;50.848;4.334;2022-10-22T08:21:33;7.33;;;1.97;;
14474;SDS011;7323;50.848;4.334;2022-10-22T08:24:00;7.23;;;2.30;;
14474;SDS011;7323;50.848;4.334;2022-10-22T08:26:25;5.43;;;2.10;;
14474;SDS011;7323;50.848;4.334;2022-10-22T08:28:53;6.63;;;2.13;;
14474;SDS011;7323;50.848;4.334;2022-10-22T08:31:19;6.17;;;2.00;;
14474;SDS011;7323;50.848;4.334;2022-10-22T08:33:44;8.40;;;2.23;;
14474;SDS011;7323;50.848;4.334;2022-10-22T08:36:10;7.47;;;2.03;;
14474;SDS011;7323;50.848;4.334;2022-10-22T08:38:36;13.07;;;2.60;;
14474;SDS011;7323;50.848;4.334;2022-10-22T08:41:05;9.93;;;2.47;;
14474;SDS011;7323;50.848;4.334;2022-10-22T08:43:37;7.47;;;2.43;;
14474;SDS011;7323;50.848;4.334;2022-10-22T08:46:32;7.13;;;2.23;;
14474;SDS011;7323;50.848;4.334;2022-10-22T08:49:03;8.50;;;2.23;;
14474;SDS011;7323;50.848;4.334;2022-10-22T08:51:35;8.33;;;2.37;;
14474;SDS011;7323;50.848;4.334;2022-10-22T08:54:18;8.23;;;2.23;;
14474;SDS011;7323;50.848;4.334;2022-10-22T09:04:56;9.00;;;2.20;;
14474;SDS011;7323;50.848;4.334;2022-10-22T09:07:56;6.33;;;2.20;;
14474;SDS011;7323;50.848;4.334;2022-10-22T09:13:00;9.30;;;2.53;;
14474;SDS011;7323;50.848;4.334;2022-10-22T09:15:29;7.13;;;2.60;;
14474;SDS011;7323;50.848;4.334;2022-10-22T09:23:09;8.60;;;2.63;;
14474;SDS011;7323;50.848;4.334;2022-10-22T09:25:50;6.60;;;2.17;;
14474;SDS011;7323;50.848;4.334;2022-10-22T09:28:17;12.83;;;2.90;;
14474;SDS011;7323;50.848;4.334;2022-10-22T09:30:43;10.90;;;2.70;;
14474;SDS011;7323;50.848;4.334;2022-10-22T09:33:11;5.93;;;2.20;;
14474;SDS011;7323;50.848;4.334;2022-10-22T09:35:43;9.53;;;2.70;;
14474;SDS011;7323;50.848;4.334;2022-10-22T09:38:12;12.07;;;2.97;;
14474;SDS011;7323;50.848;4.334;2022-10-22T09:40:47;7.50;;;2.40;;
14474;SDS011;7323;50.848;4.334;2022-10-22T09:43:15;6.93;;;2.47;;
14474;SDS011;7323;50.848;4.334;2022-10-22T09:45:43;9.23;;;3.00;;
14474;SDS011;7323;50.848;4.334;2022-10-22T09:48:23;8.17;;;2.43;;
14474;SDS011;7323;50.848;4.334;2022-10-22T09:50:59;8.83;;;2.47;;
14474;SDS011;7323;50.848;4.334;2022-10-22T09:56:52;6.30;;;2.23;;
14474;SDS011;7323;50.848;4.334;2022-10-22T09:59:31;6.17;;;1.97;;
14474;SDS011;7323;50.848;4.334;2022-10-22T10:02:11;8.27;;;2.73;;
14474;SDS011;7323;50.848;4.334;2022-10-22T10:04:48;6.97;;;2.47;;
14474;SDS011;7323;50.848;4.334;2022-10-22T10:07:20;10.70;;;2.53;;
14474;SDS011;7323;50.848;4.334;2022-10-22T10:09:53;7.77;;;2.27;;
14474;SDS011;7323;50.848;4.334;2022-10-22T10:12:21;5.70;;;2.37;;
14474;SDS011;7323;50.848;4.334;2022-10-22T10:15:19;10.73;;;2.63;;
14474;SDS011;7323;50.848;4.334;2022-10-22T10:18:11;7.07;;;2.60;;
14474;SDS011;7323;50.848;4.334;2022-10-22T10:23:56;8.00;;;2.80;;
14474;SDS011;7323;50.848;4.334;2022-10-22T10:32:28;10.90;;;2.60;;
14474;SDS011;7323;50.848;4.334;2022-10-22T10:40:56;38.23;;;6.27;;
14474;SDS011;7323;50.848;4.334;2022-10-22T10:43:37;46.73;;;7.80;;
14474;SDS011;7323;50.848;4.334;2022-10-22T10:48:59;26.43;;;5.00;;
14474;SDS011;7323;50.848;4.334;2022-10-22T10:51:43;14.90;;;3.00;;
14474;SDS011;7323;50.848;4.334;2022-10-22T11:00:11;14.00;;;3.27;;
14474;SDS011;7323;50.848;4.334;2022-10-22T11:05:25;7.47;;;2.37;;
14474;SDS011;7323;50.848;4.334;2022-10-22T11:08:04;9.00;;;2.60;;
14474;SDS011;7323;50.848;4.334;2022-10-22T11:10:44;8.70;;;2.60;;
14474;SDS011;7323;50.848;4.334;2022-10-22T11:30:34;7.23;;;2.80;;
14474;SDS011;7323;50.848;4.334;2022-10-22T11:33:10;11.07;;;2.63;;
14474;SDS011;7323;50.848;4.334;2022-10-22T11:35:41;7.07;;;2.03;;
14474;SDS011;7323;50.848;4.334;2022-10-22T11:38:11;8.27;;;2.80;;
14474;SDS011;7323;50.848;4.334;2022-10-22T11:40:53;10.27;;;2.47;;
14474;SDS011;7323;50.848;4.334;2022-10-22T11:49:18;7.27;;;2.70;;
14474;SDS011;7323;50.848;4.334;2022-10-22T11:51:48;12.73;;;2.60;;
14474;SDS011;7323;50.848;4.334;2022-10-22T11:57:18;5.70;;;1.93;;
14474;SDS011;7323;50.848;4.334;2022-10-22T12:02:22;6.63;;;1.90;;
14474;SDS011;7323;50.848;4.334;2022-10-22T12:10:24;6.00;;;1.93;;
14474;SDS011;7323;50.848;4.334;2022-10-22T12:13:04;6.43;;;2.17;;
14474;SDS011;7323;50.848;4.334;2022-10-22T12:15:46;9.43;;;2.17;;
14474;SDS011;7323;50.848;4.334;2022-10-22T12:18:16;8.07;;;2.30;;
14474;SDS011;7323;50.848;4.334;2022-10-22T12:20:48;4.97;;;1.73;;
14474;SDS011;7323;50.848;4.334;2022-10-22T12:23:15;6.40;;;2.07;;
14474;SDS011;7323;50.848;4.334;2022-10-22T12:25:47;6.87;;;1.80;;
14474;SDS011;7323;50.848;4.334;2022-10-22T12:28:12;8.43;;;2.57;;
14474;SDS011;7323;50.848;4.334;2022-10-22T12:30:40;7.90;;;2.23;;
14474;SDS011;7323;50.848;4.334;2022-10-22T12:33:06;7.17;;;2.50;;
14474;SDS011;7323;50.848;4.334;2022-10-22T12:35:42;10.07;;;2.67;;
14474;SDS011;7323;50.848;4.334;2022-10-22T12:38:14;8.43;;;2.43;;
14474;SDS011;7323;50.848;4.334;2022-10-22T12:40:42;8.47;;;2.00;;
14474;SDS011;7323;50.848;4.334;2022-10-22T12:43:22;5.87;;;2.03;;
14474;SDS011;7323;50.848;4.334;2022-10-22T12:45:50;7.20;;;2.03;;
14474;SDS011;7323;50.848;4.334;2022-10-22T12:48:26;6.27;;;1.90;;
14474;SDS011;7323;50.848;4.334;2022-10-22T12:50:55;6.93;;;2.00;;
14474;SDS011;7323;50.848;4.334;2022-10-22T12:53:28;7.80;;;1.83;;
14474;SDS011;7323;50.848;4.334;2022-10-22T12:55:58;6.13;;;1.70;;
14474;SDS011;7323;50.848;4.334;2022-10-22T12:58:37;5.47;;;1.67;;
14474;SDS011;7323;50.848;4.334;2022-10-22T13:01:16;7.13;;;1.63;;
14474;SDS011;7323;50.848;4.334;2022-10-22T13:03:50;8.67;;;1.80;;
14474;SDS011;7323;50.848;4.334;2022-10-22T13:06:28;6.00;;;1.83;;
14474;SDS011;7323;50.848;4.334;2022-10-22T13:08:56;6.97;;;1.50;;
14474;SDS011;7323;50.848;4.334;2022-10-22T13:11:39;5.13;;;1.73;;
14474;SDS011;7323;50.848;4.334;2022-10-22T13:17:03;4.67;;;1.50;;
14474;SDS011;7323;50.848;4.334;2022-10-22T13:20:02;5.77;;;1.57;;
14474;SDS011;7323;50.848;4.334;2022-10-22T13:22:54;8.70;;;2.27;;
14474;SDS011;7323;50.848;4.334;2022-10-22T13:25:34;7.80;;;1.90;;
14474;SDS011;7323;50.848;4.334;2022-10-22T13:28:14;5.47;;;1.57;;
14474;SDS011;7323;50.848;4.334;2022-10-22T13:33:44;4.53;;;1.83;;
14474;SDS011;7323;50.848;4.334;2022-10-22T13:38:46;7.53;;;1.60;;
14474;SDS011;7323;50.848;4.334;2022-10-22T13:41:30;4.93;;;1.90;;
14474;SDS011;7323;50.848;4.334;2022-10-22T13:44:04;5.90;;;1.80;;
14474;SDS011;7323;50.848;4.334;2022-10-22T13:46:33;5.40;;;2.00;;
14474;SDS011;7323;50.848;4.334;2022-10-22T13:49:06;5.53;;;2.17;;
14474;SDS011;7323;50.848;4.334;2022-10-22T13:51:42;7.97;;;1.67;;
14474;SDS011;7323;50.848;4.334;2022-10-22T13:54:13;6.60;;;1.63;;
14474;SDS011;7323;50.848;4.334;2022-10-22T13:56:43;7.37;;;2.10;;
14474;SDS011;7323;50.848;4.334;2022-10-22T13:59:11;9.00;;;1.63;;
14474;SDS011;7323;50.848;4.334;2022-10-22T14:01:52;7.33;;;1.83;;
14474;SDS011;7323;50.848;4.334;2022-10-22T14:04:23;5.53;;;1.80;;
14474;SDS011;7323;50.848;4.334;2022-10-22T14:06:48;5.03;;;1.70;;
14474;SDS011;7323;50.848;4.334;2022-10-22T14:09:17;8.47;;;1.97;;
14474;SDS011;7323;50.848;4.334;2022-10-22T14:15:07;8.07;;;2.00;;
14474;SDS011;7323;50.848;4.334;2022-10-22T14:21:07;6.73;;;1.70;;
14474;SDS011;7323;50.848;4.334;2022-10-22T14:26:25;6.00;;;1.80;;
14474;SDS011;7323;50.848;4.334;2022-10-22T14:44:12;5.40;;;1.87;;
14474;SDS011;7323;50.848;4.334;2022-10-22T14:46:43;5.50;;;1.90;;
14474;SDS011;7323;50.848;4.334;2022-10-22T14:49:23;6.37;;;2.37;;
14474;SDS011;7323;50.848;4.334;2022-10-22T14:51:52;6.87;;;2.17;;
14474;SDS011;7323;50.848;4.334;2022-10-22T14:54:29;8.37;;;3.00;;
14474;SDS011;7323;50.848;4.334;2022-10-22T14:56:55;6.63;;;2.20;;
14474;SDS011;7323;50.848;4.334;2022-10-22T14:59:24;3.93;;;1.60;;
14474;SDS011;7323;50.848;4.334;2022-10-22T15:02:03;6.60;;;1.80;;
14474;SDS011;7323;50.848;4.334;2022-10-22T15:09:53;5.00;;;1.90;;
14474;SDS011;7323;50.848;4.334;2022-10-22T15:12:45;4.93;;;1.80;;
14474;SDS011;7323;50.848;4.334;2022-10-22T15:15:22;7.23;;;1.87;;
14474;SDS011;7323;50.848;4.334;2022-10-22T15:20:33;5.80;;;1.90;;
14474;SDS011;7323;50.848;4.334;2022-10-22T15:23:08;5.87;;;2.40;;
14474;SDS011;7323;50.848;4.334;2022-10-22T15:25:36;7.43;;;2.53;;
14474;SDS011;7323;50.848;4.334;2022-10-22T15:28:03;8.73;;;2.30;;
14474;SDS011;7323;50.848;4.334;2022-10-22T15:30:42;7.50;;;2.97;;
14474;SDS011;7323;50.848;4.334;2022-10-22T15:39:08;7.40;;;2.07;;
14474;SDS011;7323;50.848;4.334;2022-10-22T15:41:36;6.20;;;2.03;;
14474;SDS011;7323;50.848;4.334;2022-10-22T15:44:04;7.63;;;2.27;;
14474;SDS011;7323;50.848;4.334;2022-10-22T15:46:32;5.93;;;2.00;;
14474;SDS011;7323;50.848;4.334;2022-10-22T15:48:58;7.13;;;2.33;;
14474;SDS011;7323;50.848;4.334;2022-10-22T15:51:30;9.23;;;2.27;;
14474;SDS011;7323;50.848;4.334;2022-10-22T15:56:57;6.30;;;1.93;;
14474;SDS011;7323;50.848;4.334;2022-10-22T15:59:30;4.73;;;1.43;;
14474;SDS011;7323;50.848;4.334;2022-10-22T16:02:02;5.60;;;1.90;;
14474;SDS011;7323;50.848;4.334;2022-10-22T16:04:28;6.73;;;2.70;;
14474;SDS011;7323;50.848;4.334;2022-10-22T16:06:54;7.93;;;2.73;;
14474;SDS011;7323;50.848;4.334;2022-10-22T16:09:22;8.30;;;2.93;;
14474;SDS011;7323;50.848;4.334;2022-10-22T16:11:56;7.67;;;2.13;;
14474;SDS011;7323;50.848;4.334;2022-10-22T16:14:48;6.90;;;2.83;;
14474;SDS011;7323;50.848;4.334;2022-10-22T16:17:18;6.47;;;2.70;;
14474;SDS011;7323;50.848;4.334;2022-10-22T16:19:43;11.87;;;4.67;;
14474;SDS011;7323;50.848;4.334;2022-10-22T16:22:30;10.10;;;5.60;;
14474;SDS011;7323;50.848;4.334;2022-10-22T16:24:57;9.43;;;3.53;;
14474;SDS011;7323;50.848;4.334;2022-10-22T16:27:30;8.00;;;3.47;;
14474;SDS011;7323;50.848;4.334;2022-10-22T16:29:56;7.73;;;2.90;;
14474;SDS011;7323;50.848;4.334;2022-10-22T16:32:21;12.33;;;3.60;;
14474;SDS011;7323;50.848;4.334;2022-10-22T16:34:48;9.17;;;3.60;;
14474;SDS011;7323;50.848;4.334;2022-10-22T16:37:14;8.53;;;3.07;;
14474;SDS011;7323;50.848;4.334;2022-10-22T16:39:42;8.33;;;3.03;;
14474;SDS011;7323;50.848;4.334;2022-10-22T16:42:07;9.97;;;3.40;;
14474;SDS011;7323;50.848;4.334;2022-10-22T16:44:34;9.27;;;3.50;;
14474;SDS011;7323;50.848;4.334;2022-10-22T16:47:07;8.60;;;3.20;;
14474;SDS011;7323;50.848;4.334;2022-10-22T16:49:34;7.10;;;2.93;;
14474;SDS011;7323;50.848;4.334;2022-10-22T16:52:02;8.90;;;2.97;;
14474;SDS011;7323;50.848;4.334;2022-10-22T16:54:33;6.97;;;2.80;;
14474;SDS011;7323;50.848;4.334;2022-10-22T16:56:58;7.60;;;2.97;;
14474;SDS011;7323;50.848;4.334;2022-10-22T16:59:24;10.53;;;4.40;;
14474;SDS011;7323;50.848;4.334;2022-10-22T17:01:49;11.13;;;5.40;;
14474;SDS011;7323;50.848;4.334;2022-10-22T17:04:16;11.90;;;6.10;;
14474;SDS011;7323;50.848;4.334;2022-10-22T17:06:42;12.73;;;8.37;;
14474;SDS011;7323;50.848;4.334;2022-10-22T17:09:08;14.90;;;8.17;;
14474;SDS011;7323;50.848;4.334;2022-10-22T17:11:35;12.70;;;7.80;;
14474;SDS011;7323;50.848;4.334;2022-10-22T17:14:05;16.40;;;8.07;;
14474;SDS011;7323;50.848;4.334;2022-10-22T17:16:36;15.53;;;9.30;;
14474;SDS011;7323;50.848;4.334;2022-10-22T17:25:42;20.67;;;10.73;;
14474;SDS011;7323;50.848;4.334;2022-10-22T17:28:10;16.63;;;10.53;;
14474;SDS011;7323;50.848;4.334;2022-10-22T17:33:10;14.27;;;9.60;;
14474;SDS011;7323;50.848;4.334;2022-10-22T17:35:38;14.50;;;8.20;;
14474;SDS011;7323;50.848;4.334;2022-10-22T17:38:08;13.20;;;7.47;;
14474;SDS011;7323;50.848;4.334;2022-10-22T17:40:38;12.90;;;6.87;;
14474;SDS011;7323;50.848;4.334;2022-10-22T17:43:10;11.70;;;6.33;;
14474;SDS011;7323;50.848;4.334;2022-10-22T17:45:39;13.33;;;6.43;;
14474;SDS011;7323;50.848;4.334;2022-10-22T17:50:54;16.50;;;8.93;;
14474;SDS011;7323;50.848;4.334;2022-10-22T17:53:23;19.27;;;9.03;;
14474;SDS011;7323;50.848;4.334;2022-10-22T17:56:04;14.37;;;8.33;;
14474;SDS011;7323;50.848;4.334;2022-10-22T17:58:36;13.73;;;7.80;;
14474;SDS011;7323;50.848;4.334;2022-10-22T18:01:02;14.90;;;8.27;;
14474;SDS011;7323;50.848;4.334;2022-10-22T18:03:28;16.03;;;9.23;;
14474;SDS011;7323;50.848;4.334;2022-10-22T18:11:53;13.77;;;8.47;;
14474;SDS011;7323;50.848;4.334;2022-10-22T18:14:34;18.83;;;9.33;;
14474;SDS011;7323;50.848;4.334;2022-10-22T18:17:02;17.53;;;11.57;;
14474;SDS011;7323;50.848;4.334;2022-10-22T18:19:29;20.27;;;12.17;;
14474;SDS011;7323;50.848;4.334;2022-10-22T18:21:55;22.20;;;12.80;;
14474;SDS011;7323;50.848;4.334;2022-10-22T18:24:22;20.27;;;12.73;;
14474;SDS011;7323;50.848;4.334;2022-10-22T18:26:49;21.70;;;12.67;;
14474;SDS011;7323;50.848;4.334;2022-10-22T18:29:18;21.40;;;12.33;;
14474;SDS011;7323;50.848;4.334;2022-10-22T18:34:53;18.97;;;12.50;;